createdAt,value
2019-01-31T11:34:50.218Z,747.088
2019-01-31T11:36:50.191Z,747.088
2019-01-31T11:38:50.823Z,747.088
2019-01-31T11:40:50.589Z,747.088
2019-01-31T11:42:49.976Z,747.088
2019-01-31T11:44:50.122Z,687.979
2019-01-31T11:46:50.027Z,747.088
2019-01-31T11:48:50.519Z,747.088
2019-01-31T11:50:49.851Z,687.346
2019-01-31T11:52:50.355Z,747.088
2019-01-31T11:54:50.701Z,747.088
2019-01-31T11:56:50.584Z,221.873
2019-01-31T11:58:50.783Z,11.332
2019-01-31T12:00:53.550Z,0.148
2019-01-31T12:02:55.721Z,0.120
2019-01-31T12:04:50.731Z,0.182
2019-01-31T12:06:50.479Z,0.160
2019-01-31T12:08:50.934Z,0.125
2019-01-31T12:10:50.261Z,0.148
2019-01-31T12:12:50.866Z,0.171
2019-01-31T12:14:50.273Z,0.148
2019-01-31T12:16:49.994Z,0.194
2019-01-31T12:18:50.370Z,0.160
2019-01-31T12:20:50.763Z,0.114
2019-01-31T12:22:50.230Z,0.211
2019-01-31T12:24:50.662Z,0.200
2019-01-31T12:26:50.600Z,0.171
2019-01-31T12:28:51.547Z,0.154
2019-01-31T12:30:50.330Z,0.182
2019-01-31T12:32:49.985Z,0.171
2019-01-31T12:34:50.112Z,0.171
2019-01-31T12:36:49.967Z,0.200
2019-01-31T12:38:50.371Z,0.188
2019-01-31T12:40:50.205Z,0.188
2019-01-31T12:42:50.796Z,0.222
2019-01-31T12:44:50.206Z,0.182
2019-01-31T12:46:50.060Z,0.177
2019-01-31T12:48:50.541Z,0.143
2019-01-31T12:50:50.693Z,0.143
2019-01-31T12:52:49.800Z,0.103
2019-01-31T12:54:49.987Z,0.154
2019-01-31T12:56:50.371Z,0.148
2019-01-31T12:58:50.658Z,0.125
2019-01-31T13:00:50.760Z,0.422
2019-01-31T13:02:49.919Z,0.473
2019-01-31T13:04:50.347Z,0.445
2019-01-31T13:06:50.560Z,0.154
2019-01-31T13:08:49.787Z,0.450
2019-01-31T13:10:49.908Z,0.485
2019-01-31T13:12:50.010Z,0.205
2019-01-31T13:14:50.125Z,0.143
2019-01-31T13:16:50.373Z,0.125
2019-01-31T13:18:50.653Z,0.165
2019-01-31T13:20:49.858Z,0.148
2019-01-31T13:22:49.933Z,0.211
2019-01-31T13:24:50.039Z,0.182
2019-01-31T13:26:50.445Z,0.182
2019-01-31T13:28:50.632Z,0.160
2019-01-31T13:30:49.819Z,0.177
2019-01-31T13:32:49.932Z,0.125
2019-01-31T13:34:50.303Z,0.160
2019-01-31T13:36:50.589Z,0.245
2019-01-31T13:38:50.751Z,0.245
2019-01-31T13:40:49.851Z,0.245
2019-01-31T14:08:50.310Z,0.188
2019-01-31T14:10:50.449Z,0.125
2019-01-31T14:12:50.614Z,0.188
2019-01-31T14:14:50.719Z,0.165
2019-01-31T14:16:49.970Z,0.245
2019-01-31T14:18:50.087Z,0.245
2019-01-31T14:20:50.628Z,0.205
2019-01-31T14:22:50.723Z,0.165
2019-01-31T14:24:49.831Z,0.148
2019-01-31T14:26:50.305Z,0.462
2019-01-31T14:28:50.451Z,0.496
2019-01-31T14:30:50.572Z,0.137
2019-01-31T14:32:50.666Z,0.165
2019-01-31T14:34:50.128Z,0.211
2019-01-31T14:36:50.444Z,0.154
2019-01-31T14:38:50.590Z,0.200
2019-01-31T14:40:50.734Z,0.137
2019-01-31T14:42:49.942Z,0.325
2019-01-31T14:44:50.099Z,0.325
2019-01-31T14:46:50.369Z,0.325
